Paxton, South Dakota
Current Conditions -  °F | °C
As of 1:53 AM on Friday 19 Dec 2014 (Local Time) from KICR Reporting Station
Clear Clear  
Wind Chill: 26°   Ceiling: Unl
Heat Index: 26°   Visibility: 10mi
Dew Point: 19°   Wind: 3mph
Humidity: 75%   Direction: 210°SSW
Pressure: 30.05"   Gusts: NA
Location:  43.2341°N, 99.5045°W
Report Text: KICR 190753Z AUTO 21003KT 10SM CLR M03/M07 A3005 RMK AO2 SLP200 T10331072
Loading
Personal Weather Stations






























Interactive Weather Map New forecast layout! Learn more

10-Day Weather Forecast

Advertisements
Track Severe Weather on mobile